sensor_id;sensor_type;location;lat;lon;timestamp;pressure;altitude;pressure_sealevel;temperature;humidity
58072;BME280;60383;46.626;18.866;2023-05-22T00:01:27;100208.44;;;17.88;74.76
58072;BME280;60383;46.626;18.866;2023-05-22T00:03:52;100206.91;;;17.79;74.61
58072;BME280;60383;46.626;18.866;2023-05-22T00:06:19;100207.16;;;17.84;74.21
58072;BME280;60383;46.626;18.866;2023-05-22T00:08:44;100207.78;;;17.79;74.58
58072;BME280;60383;46.626;18.866;2023-05-22T00:11:10;100205.88;;;17.86;73.69
58072;BME280;60383;46.626;18.866;2023-05-22T00:13:36;100209.50;;;17.87;73.23
58072;BME280;60383;46.626;18.866;2023-05-22T00:16:01;100213.53;;;17.78;73.69
58072;BME280;60383;46.626;18.866;2023-05-22T00:18:27;100212.22;;;17.53;75.27
58072;BME280;60383;46.626;18.866;2023-05-22T00:20:53;100208.41;;;17.75;74.54
58072;BME280;60383;46.626;18.866;2023-05-22T00:23:18;100201.59;;;17.77;74.32
58072;BME280;60383;46.626;18.866;2023-05-22T00:25:46;100214.38;;;17.78;73.77
58072;BME280;60383;46.626;18.866;2023-05-22T00:28:11;100209.25;;;17.68;73.60
58072;BME280;60383;46.626;18.866;2023-05-22T00:30:37;100207.91;;;17.51;74.33
58072;BME280;60383;46.626;18.866;2023-05-22T00:33:02;100212.59;;;17.50;74.43
58072;BME280;60383;46.626;18.866;2023-05-22T00:35:28;100202.59;;;17.43;74.81
58072;BME280;60383;46.626;18.866;2023-05-22T00:37:54;100219.03;;;17.58;75.03
58072;BME280;60383;46.626;18.866;2023-05-22T00:40:20;100214.09;;;17.53;75.36
58072;BME280;60383;46.626;18.866;2023-05-22T00:42:46;100210.47;;;17.46;76.13
58072;BME280;60383;46.626;18.866;2023-05-22T00:45:14;100211.94;;;17.48;75.82
58072;BME280;60383;46.626;18.866;2023-05-22T00:47:40;100218.81;;;17.52;76.52
58072;BME280;60383;46.626;18.866;2023-05-22T00:50:06;100219.63;;;17.53;76.62
58072;BME280;60383;46.626;18.866;2023-05-22T00:52:36;100219.41;;;17.54;76.45
58072;BME280;60383;46.626;18.866;2023-05-22T00:55:04;100214.09;;;17.46;76.89
58072;BME280;60383;46.626;18.866;2023-05-22T00:57:31;100223.53;;;17.10;78.38
58072;BME280;60383;46.626;18.866;2023-05-22T00:59:59;100239.69;;;17.06;79.32
58072;BME280;60383;46.626;18.866;2023-05-22T01:02:25;100244.63;;;16.26;83.96
58072;BME280;60383;46.626;18.866;2023-05-22T01:04:52;100259.44;;;16.18;85.23
58072;BME280;60383;46.626;18.866;2023-05-22T01:07:22;100266.03;;;15.80;87.58
58072;BME280;60383;46.626;18.866;2023-05-22T01:09:48;100271.81;;;16.01;86.22
58072;BME280;60383;46.626;18.866;2023-05-22T01:14:58;100274.56;;;16.44;83.85
58072;BME280;60383;46.626;18.866;2023-05-22T01:20:17;100282.13;;;16.13;83.97
58072;BME280;60383;46.626;18.866;2023-05-22T01:23:28;100289.44;;;16.21;83.77
58072;BME280;60383;46.626;18.866;2023-05-22T01:26:30;100304.56;;;16.25;84.02
58072;BME280;60383;46.626;18.866;2023-05-22T01:29:27;100307.22;;;15.60;86.33
58072;BME280;60383;46.626;18.866;2023-05-22T01:31:56;100314.28;;;15.63;87.16
58072;BME280;60383;46.626;18.866;2023-05-22T01:34:24;100315.28;;;15.77;86.58
58072;BME280;60383;46.626;18.866;2023-05-22T01:36:51;100322.94;;;15.96;85.62
58072;BME280;60383;46.626;18.866;2023-05-22T01:39:18;100316.72;;;16.09;84.82
58072;BME280;60383;46.626;18.866;2023-05-22T01:41:44;100318.13;;;16.20;84.35
58072;BME280;60383;46.626;18.866;2023-05-22T01:44:10;100317.91;;;16.22;83.86
58072;BME280;60383;46.626;18.866;2023-05-22T01:46:35;100311.19;;;16.09;84.37
58072;BME280;60383;46.626;18.866;2023-05-22T01:49:01;100321.94;;;16.19;83.88
58072;BME280;60383;46.626;18.866;2023-05-22T01:54:27;100316.47;;;16.26;83.39
58072;BME280;60383;46.626;18.866;2023-05-22T01:57:01;100315.84;;;16.31;83.52
58072;BME280;60383;46.626;18.866;2023-05-22T01:59:36;100322.84;;;16.26;83.57
58072;BME280;60383;46.626;18.866;2023-05-22T02:02:06;100322.19;;;16.24;83.75
58072;BME280;60383;46.626;18.866;2023-05-22T02:04:38;100316.47;;;16.04;84.61
58072;BME280;60383;46.626;18.866;2023-05-22T02:07:07;100307.97;;;16.06;84.78
58072;BME280;60383;46.626;18.866;2023-05-22T02:09:36;100307.38;;;15.89;85.32
58072;BME280;60383;46.626;18.866;2023-05-22T02:12:03;100322.78;;;15.98;85.47
58072;BME280;60383;46.626;18.866;2023-05-22T02:14:30;100315.94;;;16.16;85.29
58072;BME280;60383;46.626;18.866;2023-05-22T02:16:56;100312.19;;;16.02;85.45
58072;BME280;60383;46.626;18.866;2023-05-22T02:19:22;100313.38;;;16.14;85.47
58072;BME280;60383;46.626;18.866;2023-05-22T02:21:48;100311.09;;;16.18;85.46
58072;BME280;60383;46.626;18.866;2023-05-22T02:24:14;100324.75;;;16.04;86.43
58072;BME280;60383;46.626;18.866;2023-05-22T02:26:39;100322.19;;;16.03;87.02
58072;BME280;60383;46.626;18.866;2023-05-22T02:29:06;100327.25;;;15.99;87.92
58072;BME280;60383;46.626;18.866;2023-05-22T02:31:32;100326.38;;;15.99;88.20
58072;BME280;60383;46.626;18.866;2023-05-22T02:33:57;100325.44;;;15.91;88.30
58072;BME280;60383;46.626;18.866;2023-05-22T02:36:23;100321.28;;;15.95;88.00
58072;BME280;60383;46.626;18.866;2023-05-22T02:38:50;100320.59;;;15.93;87.91
58072;BME280;60383;46.626;18.866;2023-05-22T02:41:17;100313.75;;;15.89;88.34
58072;BME280;60383;46.626;18.866;2023-05-22T02:43:42;100317.03;;;15.63;89.24
58072;BME280;60383;46.626;18.866;2023-05-22T02:46:08;100311.06;;;15.44;90.39
58072;BME280;60383;46.626;18.866;2023-05-22T02:48:33;100309.25;;;15.37;91.12
58072;BME280;60383;46.626;18.866;2023-05-22T02:50:59;100304.50;;;15.30;91.48
58072;BME280;60383;46.626;18.866;2023-05-22T02:53:24;100307.00;;;15.25;92.15
58072;BME280;60383;46.626;18.866;2023-05-22T02:55:50;100298.63;;;15.33;91.81
58072;BME280;60383;46.626;18.866;2023-05-22T02:58:17;100299.66;;;15.32;92.40
58072;BME280;60383;46.626;18.866;2023-05-22T03:00:43;100282.06;;;15.33;92.00
58072;BME280;60383;46.626;18.866;2023-05-22T03:03:09;100289.44;;;15.48;91.43
58072;BME280;60383;46.626;18.866;2023-05-22T03:05:35;100291.50;;;15.61;90.76
58072;BME280;60383;46.626;18.866;2023-05-22T03:08:01;100283.59;;;15.36;91.36
58072;BME280;60383;46.626;18.866;2023-05-22T03:10:26;100280.31;;;15.47;90.85
58072;BME280;60383;46.626;18.866;2023-05-22T03:12:52;100275.00;;;15.46;90.88
58072;BME280;60383;46.626;18.866;2023-05-22T03:15:17;100271.53;;;15.59;90.80
58072;BME280;60383;46.626;18.866;2023-05-22T03:17:43;100272.28;;;15.68;90.41
58072;BME280;60383;46.626;18.866;2023-05-22T03:20:09;100278.75;;;15.75;89.71
58072;BME280;60383;46.626;18.866;2023-05-22T03:22:35;100270.94;;;15.63;89.82
58072;BME280;60383;46.626;18.866;2023-05-22T03:25:01;100272.66;;;15.64;90.04
58072;BME280;60383;46.626;18.866;2023-05-22T03:27:26;100275.97;;;15.75;89.74
58072;BME280;60383;46.626;18.866;2023-05-22T03:29:52;100269.28;;;15.84;89.65
58072;BME280;60383;46.626;18.866;2023-05-22T03:32:17;100263.03;;;15.75;90.11
58072;BME280;60383;46.626;18.866;2023-05-22T03:34:43;100263.81;;;15.69;90.89
58072;BME280;60383;46.626;18.866;2023-05-22T03:37:09;100263.69;;;15.77;90.73
58072;BME280;60383;46.626;18.866;2023-05-22T03:39:34;100268.59;;;15.60;90.91
58072;BME280;60383;46.626;18.866;2023-05-22T03:42:00;100289.75;;;15.53;91.59
58072;BME280;60383;46.626;18.866;2023-05-22T03:44:26;100289.75;;;15.90;91.08
58072;BME280;60383;46.626;18.866;2023-05-22T03:46:51;100286.41;;;15.79;90.22
58072;BME280;60383;46.626;18.866;2023-05-22T03:49:17;100304.44;;;16.12;87.93
58072;BME280;60383;46.626;18.866;2023-05-22T03:51:42;100289.69;;;16.05;88.38
58072;BME280;60383;46.626;18.866;2023-05-22T03:54:08;100285.75;;;16.14;88.06
58072;BME280;60383;46.626;18.866;2023-05-22T03:56:33;100288.63;;;16.27;87.95
58072;BME280;60383;46.626;18.866;2023-05-22T03:58:59;100285.47;;;16.31;87.43
58072;BME280;60383;46.626;18.866;2023-05-22T04:01:25;100290.84;;;16.60;85.96
58072;BME280;60383;46.626;18.866;2023-05-22T04:03:51;100274.00;;;16.55;86.01
58072;BME280;60383;46.626;18.866;2023-05-22T04:06:16;100282.31;;;16.62;85.88
58072;BME280;60383;46.626;18.866;2023-05-22T04:08:48;100277.75;;;16.76;85.96
58072;BME280;60383;46.626;18.866;2023-05-22T04:11:14;100273.16;;;16.90;85.50
58072;BME280;60383;46.626;18.866;2023-05-22T04:13:43;100290.75;;;17.04;83.92
58072;BME280;60383;46.626;18.866;2023-05-22T04:16:08;100290.53;;;16.77;84.16
58072;BME280;60383;46.626;18.866;2023-05-22T04:18:34;100287.59;;;17.14;83.14
58072;BME280;60383;46.626;18.866;2023-05-22T04:21:00;100279.38;;;17.27;83.76
58072;BME280;60383;46.626;18.866;2023-05-22T04:23:27;100280.28;;;17.41;84.10
58072;BME280;60383;46.626;18.866;2023-05-22T04:25:52;100282.69;;;17.58;83.42
58072;BME280;60383;46.626;18.866;2023-05-22T04:28:17;100289.94;;;17.17;84.43
58072;BME280;60383;46.626;18.866;2023-05-22T04:30:47;100286.16;;;16.89;88.52
58072;BME280;60383;46.626;18.866;2023-05-22T04:33:13;100287.25;;;17.30;86.69
58072;BME280;60383;46.626;18.866;2023-05-22T04:35:38;100284.22;;;17.67;84.57
58072;BME280;60383;46.626;18.866;2023-05-22T04:38:08;100293.22;;;17.76;82.43
58072;BME280;60383;46.626;18.866;2023-05-22T04:40:34;100288.16;;;17.99;80.81
58072;BME280;60383;46.626;18.866;2023-05-22T04:43:02;100282.84;;;17.98;80.12
58072;BME280;60383;46.626;18.866;2023-05-22T04:45:27;100282.38;;;17.94;80.29
58072;BME280;60383;46.626;18.866;2023-05-22T04:47:53;100289.66;;;17.95;79.81
58072;BME280;60383;46.626;18.866;2023-05-22T04:50:20;100289.66;;;17.95;79.69
58072;BME280;60383;46.626;18.866;2023-05-22T04:52:46;100305.13;;;17.76;80.32
58072;BME280;60383;46.626;18.866;2023-05-22T04:55:12;100302.34;;;17.76;79.50
58072;BME280;60383;46.626;18.866;2023-05-22T04:57:38;100292.50;;;18.15;77.72
58072;BME280;60383;46.626;18.866;2023-05-22T05:00:04;100297.59;;;18.18;77.42
58072;BME280;60383;46.626;18.866;2023-05-22T05:02:31;100302.69;;;18.08;77.18
58072;BME280;60383;46.626;18.866;2023-05-22T05:04:57;100303.72;;;18.00;76.63
58072;BME280;60383;46.626;18.866;2023-05-22T05:07:22;100320.28;;;17.80;78.37
58072;BME280;60383;46.626;18.866;2023-05-22T05:09:49;100304.09;;;17.91;78.16
58072;BME280;60383;46.626;18.866;2023-05-22T05:12:15;100308.56;;;17.78;78.04
58072;BME280;60383;46.626;18.866;2023-05-22T05:14:40;100307.38;;;18.01;77.60
58072;BME280;60383;46.626;18.866;2023-05-22T05:17:06;100306.50;;;18.00;77.71
58072;BME280;60383;46.626;18.866;2023-05-22T05:19:31;100304.00;;;18.19;77.13
58072;BME280;60383;46.626;18.866;2023-05-22T05:21:58;100294.41;;;18.35;76.27
58072;BME280;60383;46.626;18.866;2023-05-22T05:24:24;100295.06;;;18.57;76.76
58072;BME280;60383;46.626;18.866;2023-05-22T05:26:50;100282.66;;;18.73;75.54
58072;BME280;60383;46.626;18.866;2023-05-22T05:29:15;100295.50;;;18.94;76.45
58072;BME280;60383;46.626;18.866;2023-05-22T05:31:40;100286.50;;;19.06;75.86
58072;BME280;60383;46.626;18.866;2023-05-22T05:34:06;100302.44;;;19.30;74.00
58072;BME280;60383;46.626;18.866;2023-05-22T05:36:31;100295.88;;;19.05;71.85
58072;BME280;60383;46.626;18.866;2023-05-22T05:38:57;100306.97;;;18.84;72.92
58072;BME280;60383;46.626;18.866;2023-05-22T05:41:23;100302.28;;;19.05;73.25
58072;BME280;60383;46.626;18.866;2023-05-22T05:43:49;100306.91;;;19.31;73.38
58072;BME280;60383;46.626;18.866;2023-05-22T05:46:16;100306.31;;;19.23;72.32
58072;BME280;60383;46.626;18.866;2023-05-22T05:48:42;100311.22;;;19.27;72.72
58072;BME280;60383;46.626;18.866;2023-05-22T05:51:08;100313.59;;;19.10;72.30
58072;BME280;60383;46.626;18.866;2023-05-22T05:53:34;100311.69;;;18.97;73.29
58072;BME280;60383;46.626;18.866;2023-05-22T05:56:01;100309.28;;;19.28;72.72
58072;BME280;60383;46.626;18.866;2023-05-22T05:58:27;100306.03;;;19.38;72.44
58072;BME280;60383;46.626;18.866;2023-05-22T06:00:52;100314.56;;;19.50;72.23
58072;BME280;60383;46.626;18.866;2023-05-22T06:03:18;100308.94;;;19.63;73.38
58072;BME280;60383;46.626;18.866;2023-05-22T06:05:43;100309.78;;;19.70;72.21
58072;BME280;60383;46.626;18.866;2023-05-22T06:08:10;100316.53;;;19.88;72.13
58072;BME280;60383;46.626;18.866;2023-05-22T06:10:36;100315.38;;;20.09;72.25
58072;BME280;60383;46.626;18.866;2023-05-22T06:13:01;100313.75;;;20.26;72.37
58072;BME280;60383;46.626;18.866;2023-05-22T06:15:27;100305.53;;;20.38;68.12
58072;BME280;60383;46.626;18.866;2023-05-22T06:17:53;100313.38;;;20.48;68.64
58072;BME280;60383;46.626;18.866;2023-05-22T06:20:18;100306.63;;;20.63;67.18
58072;BME280;60383;46.626;18.866;2023-05-22T06:22:44;100313.84;;;20.70;66.89
58072;BME280;60383;46.626;18.866;2023-05-22T06:25:09;100311.91;;;20.71;66.26
58072;BME280;60383;46.626;18.866;2023-05-22T06:27:35;100316.31;;;20.85;65.80
58072;BME280;60383;46.626;18.866;2023-05-22T06:30:00;100316.72;;;20.89;66.63
58072;BME280;60383;46.626;18.866;2023-05-22T06:32:27;100325.63;;;20.98;66.38
58072;BME280;60383;46.626;18.866;2023-05-22T06:34:52;100326.00;;;21.01;65.69
58072;BME280;60383;46.626;18.866;2023-05-22T06:37:18;100320.38;;;21.08;65.06
58072;BME280;60383;46.626;18.866;2023-05-22T06:39:43;100325.41;;;21.18;65.28
58072;BME280;60383;46.626;18.866;2023-05-22T06:42:09;100324.06;;;20.51;66.82
58072;BME280;60383;46.626;18.866;2023-05-22T06:44:34;100325.66;;;20.66;67.23
58072;BME280;60383;46.626;18.866;2023-05-22T06:47:00;100328.81;;;20.76;67.52
58072;BME280;60383;46.626;18.866;2023-05-22T06:49:25;100327.25;;;21.05;68.22
58072;BME280;60383;46.626;18.866;2023-05-22T06:51:51;100329.44;;;21.22;66.37
58072;BME280;60383;46.626;18.866;2023-05-22T06:54:16;100319.25;;;21.34;65.73
58072;BME280;60383;46.626;18.866;2023-05-22T06:56:44;100324.50;;;21.43;65.18
58072;BME280;60383;46.626;18.866;2023-05-22T06:59:10;100325.53;;;21.48;64.76
58072;BME280;60383;46.626;18.866;2023-05-22T07:01:38;100327.69;;;21.65;66.12
58072;BME280;60383;46.626;18.866;2023-05-22T07:04:04;100328.03;;;21.87;67.01
58072;BME280;60383;46.626;18.866;2023-05-22T07:06:30;100328.78;;;21.01;66.21
58072;BME280;60383;46.626;18.866;2023-05-22T07:09:04;100321.50;;;21.63;64.86
58072;BME280;60383;46.626;18.866;2023-05-22T07:11:30;100321.94;;;21.78;63.28
58072;BME280;60383;46.626;18.866;2023-05-22T07:13:55;100321.53;;;21.93;63.81
58072;BME280;60383;46.626;18.866;2023-05-22T07:16:21;100325.75;;;22.14;63.93
58072;BME280;60383;46.626;18.866;2023-05-22T07:18:47;100322.63;;;22.23;62.36
58072;BME280;60383;46.626;18.866;2023-05-22T07:21:13;100323.38;;;22.30;62.94
58072;BME280;60383;46.626;18.866;2023-05-22T07:23:38;100315.22;;;22.16;62.49
58072;BME280;60383;46.626;18.866;2023-05-22T07:26:04;100322.44;;;22.36;60.96
58072;BME280;60383;46.626;18.866;2023-05-22T07:28:29;100318.72;;;22.42;61.22
58072;BME280;60383;46.626;18.866;2023-05-22T07:30:55;100316.41;;;22.51;60.79
58072;BME280;60383;46.626;18.866;2023-05-22T07:33:21;100316.91;;;22.48;59.89
58072;BME280;60383;46.626;18.866;2023-05-22T07:35:47;100322.28;;;22.61;61.15
58072;BME280;60383;46.626;18.866;2023-05-22T07:38:12;100314.47;;;22.52;60.94
58072;BME280;60383;46.626;18.866;2023-05-22T07:40:37;100305.00;;;22.41;60.60
58072;BME280;60383;46.626;18.866;2023-05-22T07:43:03;100313.03;;;22.61;60.83
58072;BME280;60383;46.626;18.866;2023-05-22T07:45:29;100310.28;;;22.85;61.85
58072;BME280;60383;46.626;18.866;2023-05-22T07:47:55;100312.22;;;22.96;58.66
58072;BME280;60383;46.626;18.866;2023-05-22T07:50:23;100306.28;;;22.92;57.55
58072;BME280;60383;46.626;18.866;2023-05-22T07:52:50;100300.59;;;22.99;56.10
58072;BME280;60383;46.626;18.866;2023-05-22T07:55:16;100303.84;;;23.08;56.10
58072;BME280;60383;46.626;18.866;2023-05-22T07:57:42;100297.91;;;22.92;57.37
58072;BME280;60383;46.626;18.866;2023-05-22T08:00:08;100303.72;;;23.14;55.85
58072;BME280;60383;46.626;18.866;2023-05-22T08:02:39;100298.13;;;22.79;54.28
58072;BME280;60383;46.626;18.866;2023-05-22T08:05:06;100300.91;;;22.25;55.97
58072;BME280;60383;46.626;18.866;2023-05-22T08:07:31;100304.06;;;22.47;57.22
58072;BME280;60383;46.626;18.866;2023-05-22T08:09:57;100307.25;;;22.86;57.66
58072;BME280;60383;46.626;18.866;2023-05-22T08:12:23;100304.09;;;23.06;54.46
58072;BME280;60383;46.626;18.866;2023-05-22T08:14:48;100294.63;;;22.72;54.20
58072;BME280;60383;46.626;18.866;2023-05-22T08:17:14;100291.09;;;22.64;55.03
58072;BME280;60383;46.626;18.866;2023-05-22T08:19:39;100300.91;;;23.14;56.25
58072;BME280;60383;46.626;18.866;2023-05-22T08:22:05;100295.50;;;23.20;52.53
58072;BME280;60383;46.626;18.866;2023-05-22T08:24:31;100298.00;;;23.09;53.80
58072;BME280;60383;46.626;18.866;2023-05-22T08:26:56;100295.34;;;22.91;53.72
58072;BME280;60383;46.626;18.866;2023-05-22T08:29:25;100290.13;;;23.06;55.44
58072;BME280;60383;46.626;18.866;2023-05-22T08:31:50;100283.81;;;22.99;52.92
58072;BME280;60383;46.626;18.866;2023-05-22T08:34:18;100288.28;;;23.12;54.69
58072;BME280;60383;46.626;18.866;2023-05-22T08:36:43;100286.09;;;23.38;53.16
58072;BME280;60383;46.626;18.866;2023-05-22T08:39:09;100278.91;;;23.54;54.77
58072;BME280;60383;46.626;18.866;2023-05-22T08:41:35;100284.28;;;23.32;51.91
58072;BME280;60383;46.626;18.866;2023-05-22T08:44:00;100280.38;;;23.44;52.36
58072;BME280;60383;46.626;18.866;2023-05-22T08:46:27;100289.34;;;23.87;52.42
58072;BME280;60383;46.626;18.866;2023-05-22T08:48:56;100282.66;;;23.88;50.52
58072;BME280;60383;46.626;18.866;2023-05-22T08:51:28;100285.84;;;23.80;49.59
58072;BME280;60383;46.626;18.866;2023-05-22T08:53:55;100279.38;;;23.63;48.76
58072;BME280;60383;46.626;18.866;2023-05-22T08:56:21;100274.47;;;24.28;50.38
58072;BME280;60383;46.626;18.866;2023-05-22T08:58:48;100289.16;;;24.52;47.40
58072;BME280;60383;46.626;18.866;2023-05-22T09:01:15;100282.66;;;23.88;47.76
58072;BME280;60383;46.626;18.866;2023-05-22T09:03:41;100284.28;;;23.84;48.55
58072;BME280;60383;46.626;18.866;2023-05-22T09:06:06;100278.63;;;24.42;46.73
58072;BME280;60383;46.626;18.866;2023-05-22T09:08:34;100285.50;;;24.34;45.01
58072;BME280;60383;46.626;18.866;2023-05-22T09:11:00;100281.44;;;24.42;47.54
58072;BME280;60383;46.626;18.866;2023-05-22T09:13:30;100285.34;;;24.58;43.44
58072;BME280;60383;46.626;18.866;2023-05-22T09:16:08;100282.81;;;24.11;44.57
58072;BME280;60383;46.626;18.866;2023-05-22T09:18:37;100280.31;;;23.68;45.52
58072;BME280;60383;46.626;18.866;2023-05-22T09:21:07;100284.50;;;24.40;45.36
58072;BME280;60383;46.626;18.866;2023-05-22T09:23:33;100275.44;;;24.84;44.03
58072;BME280;60383;46.626;18.866;2023-05-22T09:26:00;100282.16;;;23.63;45.57
58072;BME280;60383;46.626;18.866;2023-05-22T09:28:26;100280.63;;;23.84;45.22
58072;BME280;60383;46.626;18.866;2023-05-22T09:30:54;100281.72;;;24.75;45.59
58072;BME280;60383;46.626;18.866;2023-05-22T09:33:22;100278.38;;;25.12;45.97
58072;BME280;60383;46.626;18.866;2023-05-22T09:35:50;100279.09;;;24.68;42.07
58072;BME280;60383;46.626;18.866;2023-05-22T09:38:16;100279.50;;;25.33;42.09
58072;BME280;60383;46.626;18.866;2023-05-22T09:40:41;100275.63;;;25.56;44.33
58072;BME280;60383;46.626;18.866;2023-05-22T09:43:08;100276.59;;;25.67;42.19
58072;BME280;60383;46.626;18.866;2023-05-22T09:45:34;100275.53;;;25.29;42.61
58072;BME280;60383;46.626;18.866;2023-05-22T09:48:01;100267.09;;;25.46;43.71
58072;BME280;60383;46.626;18.866;2023-05-22T09:50:26;100271.03;;;25.94;41.31
58072;BME280;60383;46.626;18.866;2023-05-22T09:52:52;100268.50;;;26.20;43.87
58072;BME280;60383;46.626;18.866;2023-05-22T09:55:19;100265.25;;;25.79;42.83
58072;BME280;60383;46.626;18.866;2023-05-22T09:57:50;100266.56;;;25.98;42.22
58072;BME280;60383;46.626;18.866;2023-05-22T10:00:17;100265.13;;;26.18;43.73
58072;BME280;60383;46.626;18.866;2023-05-22T10:02:45;100268.28;;;26.27;41.97
58072;BME280;60383;46.626;18.866;2023-05-22T10:05:12;100255.34;;;25.98;41.41
58072;BME280;60383;46.626;18.866;2023-05-22T10:07:50;100256.50;;;25.75;41.83
58072;BME280;60383;46.626;18.866;2023-05-22T10:10:23;100255.94;;;26.28;42.66
58072;BME280;60383;46.626;18.866;2023-05-22T10:12:55;100258.66;;;26.18;41.99
58072;BME280;60383;46.626;18.866;2023-05-22T10:15:22;100258.25;;;26.69;41.42
58072;BME280;60383;46.626;18.866;2023-05-22T10:17:48;100244.72;;;26.98;40.34
58072;BME280;60383;46.626;18.866;2023-05-22T10:20:15;100257.66;;;26.67;42.35
58072;BME280;60383;46.626;18.866;2023-05-22T10:22:41;100251.81;;;27.11;41.79
58072;BME280;60383;46.626;18.866;2023-05-22T10:25:07;100247.63;;;27.19;39.27
58072;BME280;60383;46.626;18.866;2023-05-22T10:27:33;100247.06;;;26.74;40.71
58072;BME280;60383;46.626;18.866;2023-05-22T10:30:10;100249.84;;;26.09;41.59
58072;BME280;60383;46.626;18.866;2023-05-22T10:32:59;100249.22;;;26.02;41.57
58072;BME280;60383;46.626;18.866;2023-05-22T10:35:43;100248.63;;;25.99;40.88
58072;BME280;60383;46.626;18.866;2023-05-22T10:40:48;100241.72;;;26.72;41.03
58072;BME280;60383;46.626;18.866;2023-05-22T10:43:14;100241.28;;;26.86;40.19
58072;BME280;60383;46.626;18.866;2023-05-22T10:45:40;100232.09;;;27.01;39.64
58072;BME280;60383;46.626;18.866;2023-05-22T10:48:07;100238.50;;;26.26;40.24
58072;BME280;60383;46.626;18.866;2023-05-22T10:50:34;100242.03;;;26.11;41.93
58072;BME280;60383;46.626;18.866;2023-05-22T10:58:15;100237.69;;;25.09;42.36
58072;BME280;60383;46.626;18.866;2023-05-22T11:00:40;100225.75;;;25.58;41.86
58072;BME280;60383;46.626;18.866;2023-05-22T11:03:06;100216.59;;;26.55;40.86
58072;BME280;60383;46.626;18.866;2023-05-22T11:05:32;100222.94;;;27.21;39.96
58072;BME280;60383;46.626;18.866;2023-05-22T11:13:17;100212.28;;;27.33;39.59
58072;BME280;60383;46.626;18.866;2023-05-22T11:15:44;100214.03;;;26.91;39.28
58072;BME280;60383;46.626;18.866;2023-05-22T11:18:10;100200.41;;;26.68;41.59
58072;BME280;60383;46.626;18.866;2023-05-22T11:20:37;100202.31;;;26.24;41.88
58072;BME280;60383;46.626;18.866;2023-05-22T11:23:04;100202.84;;;26.97;40.17
58072;BME280;60383;46.626;18.866;2023-05-22T11:25:32;100197.84;;;27.04;40.61
58072;BME280;60383;46.626;18.866;2023-05-22T11:28:01;100198.78;;;27.30;41.24
58072;BME280;60383;46.626;18.866;2023-05-22T11:30:27;100203.78;;;27.92;38.08
58072;BME280;60383;46.626;18.866;2023-05-22T11:32:56;100194.81;;;28.05;37.07
58072;BME280;60383;46.626;18.866;2023-05-22T11:35:22;100201.16;;;27.54;39.19
58072;BME280;60383;46.626;18.866;2023-05-22T11:37:50;100200.66;;;27.98;39.31
58072;BME280;60383;46.626;18.866;2023-05-22T11:40:21;100192.25;;;28.03;39.11
58072;BME280;60383;46.626;18.866;2023-05-22T11:42:51;100183.81;;;28.03;37.91
58072;BME280;60383;46.626;18.866;2023-05-22T11:45:17;100186.38;;;28.41;37.92
58072;BME280;60383;46.626;18.866;2023-05-22T11:47:43;100185.19;;;28.63;36.71
58072;BME280;60383;46.626;18.866;2023-05-22T11:50:10;100184.94;;;28.49;39.00
58072;BME280;60383;46.626;18.866;2023-05-22T11:52:36;100179.00;;;27.78;39.62
58072;BME280;60383;46.626;18.866;2023-05-22T11:55:03;100185.41;;;27.63;38.95
58072;BME280;60383;46.626;18.866;2023-05-22T11:57:32;100179.25;;;27.71;39.33
58072;BME280;60383;46.626;18.866;2023-05-22T11:59:59;100181.16;;;27.45;41.01
58072;BME280;60383;46.626;18.866;2023-05-22T12:02:25;100176.75;;;27.85;38.50
58072;BME280;60383;46.626;18.866;2023-05-22T12:04:54;100173.09;;;27.90;37.77
58072;BME280;60383;46.626;18.866;2023-05-22T12:07:20;100173.03;;;27.54;38.58
58072;BME280;60383;46.626;18.866;2023-05-22T12:09:47;100173.38;;;27.94;38.56
58072;BME280;60383;46.626;18.866;2023-05-22T12:12:14;100166.19;;;27.34;38.90
58072;BME280;60383;46.626;18.866;2023-05-22T12:14:43;100172.94;;;27.38;39.27
58072;BME280;60383;46.626;18.866;2023-05-22T12:17:11;100164.81;;;26.78;40.11
58072;BME280;60383;46.626;18.866;2023-05-22T12:19:38;100169.44;;;27.05;41.43
58072;BME280;60383;46.626;18.866;2023-05-22T12:22:04;100164.44;;;26.27;41.33
58072;BME280;60383;46.626;18.866;2023-05-22T12:24:41;100159.41;;;26.29;43.74
58072;BME280;60383;46.626;18.866;2023-05-22T12:27:09;100165.75;;;26.52;42.15
58072;BME280;60383;46.626;18.866;2023-05-22T12:29:36;100159.13;;;26.30;41.81
58072;BME280;60383;46.626;18.866;2023-05-22T12:32:03;100157.56;;;26.45;41.66
58072;BME280;60383;46.626;18.866;2023-05-22T12:34:33;100156.47;;;26.51;43.12
58072;BME280;60383;46.626;18.866;2023-05-22T12:36:59;100148.56;;;26.43;44.42
58072;BME280;60383;46.626;18.866;2023-05-22T12:39:26;100150.19;;;26.34;46.13
58072;BME280;60383;46.626;18.866;2023-05-22T12:41:52;100154.94;;;26.33;45.01
58072;BME280;60383;46.626;18.866;2023-05-22T12:44:18;100154.19;;;26.43;45.11
58072;BME280;60383;46.626;18.866;2023-05-22T12:46:43;100149.91;;;26.35;45.32
58072;BME280;60383;46.626;18.866;2023-05-22T12:49:09;100154.91;;;26.28;46.60
58072;BME280;60383;46.626;18.866;2023-05-22T12:51:35;100141.50;;;26.35;45.31
58072;BME280;60383;46.626;18.866;2023-05-22T12:54:01;100140.50;;;26.14;45.77
58072;BME280;60383;46.626;18.866;2023-05-22T12:56:27;100145.03;;;26.20;46.33
58072;BME280;60383;46.626;18.866;2023-05-22T12:58:53;100149.13;;;26.45;44.75
58072;BME280;60383;46.626;18.866;2023-05-22T13:01:18;100143.22;;;26.41;44.71